Nixon, NV (89424)

3:10 PM PDT on August 04, 2015 (GMT -0700)
Palomino Valley (Off Pyramid Highway) | | Change Station
CLOSE
Current Station
Personal Weather Station
Location: Reno, NV
Elevation: 4410 ft
Nearby Weather Stations

Elev 4410 ft 39.83 °N, 119.64 °W | Updated 4 minutes ago

Partly Cloudy
Partly Cloudy
89.1 °F
Feels Like 85 °F
N
8.0
Wind Variable Wind from WNW
Gusts 15.0 mph

Today
High -- | Low -- °F
--% Chance of Precip.
Yesterday
High -- | Low -- °F
Precip. -- in
5:58 AM 8:07 PM
Waning Gibbous, 74% visible
Pressure 30.05 in
Visibility 10.0 miles
Clouds Few 12000 ft
Heat Index 85 °F
Dew Point 32 °F
Humidity 13%
Rainfall 0.00 in
Snow Depth Not available.
UV 9 out of 12
Pollen 6.30 out of 12
Air Quality Not available.
Flu Activity Not available.
METAR KRTS 042155Z AUTO 00000KT 10SM FEW120 28/M01 A3005 RMK AO2

More Conditions Fewer Conditions

Pressure 30.05 in
Visibility 10.0 miles
Clouds Few 12000 ft
Heat Index 85 °F
Dew Point 32 °F
Humidity 13%
Rainfall 0.00 in
Snow Depth Not available.
UV 9 out of 12
Pollen 6.30 out of 12
Air Quality Not available.
Flu Activity Not available.
METAR KRTS 042155Z AUTO 00000KT 10SM FEW120 28/M01 A3005 RMK AO2

More Conditions Fewer Conditions

10-Day Weather Forecast

×

Almanac

Astronomy

Aug. 04, 2015 Rise Set
Actual Time
Civil Twilight
Nautical Twilight
Astronomical Twilight
Moon
Length of Visible Light
Length of Day
Tomorrow will be .
, % of the Moon is Illuminated

Today's Extremes

State Highs State Lows

Community

WunderPhotos

Upload Photos

1,844,002 photos uploaded!

WunderBlogs® & News

Nearby

Air Quality

  Air Quality AQ Index Pollutant
Not available.

Snow Depth

Station Depth Elevation

Earthquake Activity

City Distance Mag. Time & Date
Minimum magnitude displayed is 2.5.

Coastal Water Temperatures

Place Temperature

Stations

Nearby Weather Stations

Station Location Temp. Windchill Dew Point Humidity Wind Precip. Elev Updated Type